createdAt,value
2018-06-23T00:01:29.500Z,54.40
2018-06-23T00:06:21.116Z,54.60
2018-06-23T00:11:12.008Z,54.60
2018-06-23T00:16:02.902Z,54.80
2018-06-23T00:20:53.799Z,54.80
2018-06-23T00:25:44.691Z,54.90
2018-06-23T00:30:35.575Z,54.70
2018-06-23T00:35:26.472Z,55.10
2018-06-23T00:40:17.359Z,55.10
2018-06-23T00:45:09.020Z,55.00
2018-06-23T00:49:59.895Z,55.00
2018-06-23T00:54:50.776Z,55.00
2018-06-23T00:59:41.689Z,55.70
2018-06-23T01:04:32.589Z,54.90
2018-06-23T01:09:23.508Z,54.90
2018-06-23T01:14:14.390Z,54.80
2018-06-23T01:19:06.011Z,54.80
2018-06-23T01:23:56.895Z,54.70
2018-06-23T01:28:47.776Z,54.80
2018-06-23T01:33:39.405Z,55.00
2018-06-23T01:38:31.083Z,55.10
2018-06-23T01:43:21.991Z,55.10
2018-06-23T01:48:12.881Z,55.20
2018-06-23T01:53:04.511Z,55.30
2018-06-23T01:57:56.140Z,55.00
2018-06-23T02:02:47.766Z,55.00
2018-06-23T02:07:39.399Z,55.20
2018-06-23T02:12:31.036Z,54.90
2018-06-23T02:22:59.300Z,55.10
2018-06-23T02:33:08.928Z,54.70
2018-06-23T02:37:59.807Z,54.70
2018-06-23T02:42:50.696Z,54.50
2018-06-23T02:47:42.352Z,54.70
2018-06-23T02:52:33.231Z,54.70
2018-06-23T02:57:24.125Z,54.80
2018-06-23T03:02:15.013Z,54.80
2018-06-23T03:07:05.891Z,54.70
2018-06-23T03:11:57.543Z,54.70
2018-06-23T03:16:49.180Z,54.60
2018-06-23T03:21:40.817Z,54.80
2018-06-23T03:26:32.472Z,54.70
2018-06-23T03:31:23.372Z,54.70
2018-06-23T03:36:15.008Z,54.60
2018-06-23T03:41:06.644Z,54.70
2018-06-23T03:45:58.283Z,54.80
2018-06-23T03:50:49.923Z,54.80
2018-06-23T03:55:40.816Z,54.80
2018-06-23T04:00:32.465Z,54.80
2018-06-23T04:05:24.101Z,54.80
2018-06-23T04:10:15.743Z,54.80
2018-06-23T04:15:07.393Z,54.80
2018-06-23T04:19:58.275Z,54.80
2018-06-23T04:24:49.164Z,54.80
2018-06-23T04:29:40.056Z,54.90
2018-06-23T04:34:30.956Z,55.10
2018-06-23T04:39:21.846Z,55.10
2018-06-23T04:44:12.726Z,55.70
2018-06-23T04:49:03.611Z,55.20
2018-06-23T04:53:54.500Z,55.20
2018-06-23T04:58:45.423Z,55.30
2018-06-23T05:03:37.059Z,55.90
2018-06-23T05:08:28.682Z,56.10
2018-06-23T05:13:19.592Z,55.90
2018-06-23T05:18:11.255Z,55.90
2018-06-23T05:23:02.878Z,55.80
2018-06-23T05:27:53.768Z,55.80
2018-06-23T05:32:44.663Z,55.80
2018-06-23T05:37:35.767Z,55.80
2018-06-23T05:42:26.667Z,55.80
2018-06-23T05:47:18.304Z,56.00
2018-06-23T05:52:09.962Z,55.90
2018-06-23T05:57:00.844Z,55.90
2018-06-23T06:01:52.491Z,56.10
2018-06-23T06:06:44.114Z,56.20
2018-06-23T06:11:35.009Z,56.20
2018-06-23T06:16:25.896Z,56.10
2018-06-23T06:21:16.791Z,56.00
2018-06-23T06:26:08.444Z,56.30
2018-06-23T06:30:59.403Z,56.30
2018-06-23T06:35:50.292Z,56.40
2018-06-23T06:40:41.180Z,56.50
2018-06-23T06:45:32.839Z,57.40
2018-06-23T06:50:23.793Z,57.40
2018-06-23T06:55:14.688Z,57.60
2018-06-23T07:00:05.567Z,57.70
2018-06-23T07:04:57.249Z,58.20
2018-06-23T07:09:48.144Z,58.20
2018-06-23T07:14:39.040Z,58.10
2018-06-23T07:19:30.664Z,58.30
2018-06-23T07:24:22.297Z,58.20
2018-06-23T07:29:13.188Z,58.10
2018-06-23T07:34:04.065Z,58.20
2018-06-23T07:38:54.946Z,58.20
2018-06-23T07:43:45.831Z,58.50
2018-06-23T07:48:36.724Z,59.40
2018-06-23T07:53:27.620Z,59.10
2018-06-23T07:58:19.244Z,59.50
2018-06-23T08:03:10.941Z,59.50
2018-06-23T08:08:01.861Z,59.50
2018-06-23T08:12:52.751Z,59.30
2018-06-23T08:17:43.644Z,59.50
2018-06-23T08:22:35.272Z,59.70
2018-06-23T08:27:26.903Z,60.50
2018-06-23T08:32:18.531Z,60.60
2018-06-23T08:37:09.425Z,60.50
2018-06-23T08:42:00.300Z,60.40
2018-06-23T08:46:51.188Z,60.90
2018-06-23T08:51:42.820Z,60.40
2018-06-23T08:56:33.702Z,60.40
2018-06-23T09:01:24.584Z,60.80
2018-06-23T09:06:15.481Z,60.80
2018-06-23T09:11:07.136Z,60.90
2018-06-23T09:15:58.128Z,60.90
2018-06-23T09:20:49.016Z,60.90
2018-06-23T09:25:39.901Z,60.50
2018-06-23T09:30:30.792Z,60.80
2018-06-23T09:35:22.483Z,60.60
2018-06-23T09:40:13.433Z,60.50
2018-06-23T09:45:05.079Z,60.40
2018-06-23T09:49:56.719Z,60.10
2018-06-23T09:54:55.524Z,59.90
2018-06-23T09:59:47.904Z,59.70
2018-06-23T10:04:38.791Z,59.70
2018-06-23T10:09:30.436Z,59.30
2018-06-23T10:14:22.156Z,59.00
2018-06-23T10:19:13.048Z,59.00
2018-06-23T10:24:03.939Z,58.80
2018-06-23T10:28:54.837Z,58.50
2018-06-23T10:33:45.744Z,58.30
2018-06-23T10:38:37.526Z,57.80
2018-06-23T10:43:29.541Z,57.70
2018-06-23T10:48:20.426Z,57.50
2018-06-23T10:53:11.315Z,57.20
2018-06-23T10:58:02.196Z,56.90
2018-06-23T11:02:53.093Z,56.50
2018-06-23T11:07:44.721Z,55.90
2018-06-23T11:12:35.624Z,55.80
2018-06-23T11:17:26.524Z,55.70
2018-06-23T11:22:17.415Z,55.30
2018-06-23T11:27:08.303Z,54.90
2018-06-23T11:31:59.940Z,54.70
2018-06-23T11:36:51.575Z,54.40
2018-06-23T11:41:43.212Z,54.20
2018-06-23T11:46:34.889Z,54.10
2018-06-23T11:51:25.762Z,53.90
2018-06-23T11:56:17.404Z,53.70
2018-06-23T12:01:09.035Z,53.50
2018-06-23T12:06:00.668Z,53.50
2018-06-23T12:10:52.299Z,53.40
2018-06-23T12:15:43.931Z,53.30
2018-06-23T12:20:35.564Z,53.50
2018-06-23T12:25:26.517Z,53.40
2018-06-23T12:30:17.375Z,53.90
2018-06-23T12:35:08.247Z,54.20
2018-06-23T12:39:59.153Z,54.20
2018-06-23T12:44:50.780Z,53.80
2018-06-23T12:49:42.412Z,53.60
2018-06-23T12:54:34.032Z,53.10
2018-06-23T12:59:24.925Z,53.10
2018-06-23T13:04:15.828Z,52.80
2018-06-23T13:09:06.716Z,52.80
2018-06-23T13:13:57.603Z,52.70
2018-06-23T13:18:48.496Z,52.60
2018-06-23T13:23:39.381Z,53.00
2018-06-23T13:28:30.267Z,53.20
2018-06-23T13:33:21.900Z,53.60
2018-06-23T13:38:12.815Z,53.50
2018-06-23T13:43:03.695Z,54.10
2018-06-23T13:47:54.572Z,54.80
2018-06-23T13:52:46.205Z,55.90
2018-06-23T13:57:37.832Z,55.80
2018-06-23T14:02:29.456Z,55.80
2018-06-23T14:07:20.336Z,55.70
2018-06-23T14:12:11.230Z,55.70
2018-06-23T14:17:02.117Z,55.90
2018-06-23T14:21:53.740Z,56.30
2018-06-23T14:26:44.627Z,56.20
2018-06-23T14:31:35.680Z,56.30
2018-06-23T14:36:26.423Z,56.40
2018-06-23T14:41:17.303Z,56.30
2018-06-23T14:46:08.180Z,56.10
2018-06-23T14:50:59.073Z,55.80
2018-06-23T14:55:50.716Z,55.20
2018-06-23T15:00:41.604Z,55.10
2018-06-23T15:05:32.495Z,55.20
2018-06-23T15:15:50.009Z,55.10
2018-06-23T15:20:41.639Z,54.90
2018-06-23T15:25:33.264Z,54.70
2018-06-23T15:30:24.156Z,54.60
2018-06-23T15:35:15.045Z,54.60
2018-06-23T15:40:05.939Z,54.70
2018-06-23T15:44:56.831Z,54.70
2018-06-23T15:49:47.707Z,54.80
2018-06-23T15:54:38.587Z,55.00
2018-06-23T15:59:30.240Z,55.30
2018-06-23T16:04:21.116Z,55.20
2018-06-23T16:09:12.008Z,55.80
2018-06-23T16:14:02.899Z,56.00
2018-06-23T16:18:53.985Z,56.10
2018-06-23T16:23:44.851Z,56.10
2018-06-23T16:28:35.793Z,56.10
2018-06-23T16:33:26.636Z,56.80
2018-06-23T16:38:17.515Z,56.40
2018-06-23T16:43:08.405Z,56.60
2018-06-23T16:47:59.304Z,56.70
2018-06-23T16:52:50.937Z,56.70
2018-06-23T16:57:42.567Z,56.70
2018-06-23T17:02:34.195Z,56.70
2018-06-23T17:07:25.079Z,56.70
2018-06-23T17:12:15.976Z,56.80
2018-06-23T17:17:06.860Z,57.00
2018-06-23T17:21:58.536Z,57.10
2018-06-23T17:26:49.421Z,57.10
2018-06-23T17:31:41.043Z,57.30
2018-06-23T17:36:32.670Z,58.00
2018-06-23T17:41:23.556Z,57.40
2018-06-23T17:46:14.452Z,58.10
2018-06-23T17:51:06.075Z,57.60
2018-06-23T17:55:56.968Z,57.60
2018-06-23T18:00:48.591Z,57.70
2018-06-23T18:05:39.480Z,57.70
2018-06-23T18:10:30.368Z,57.80
2018-06-23T18:15:21.242Z,57.90
2018-06-23T18:20:12.124Z,58.10
2018-06-23T18:25:03.001Z,58.40
2018-06-23T18:29:54.619Z,58.80
2018-06-23T18:34:45.492Z,58.70
2018-06-23T18:39:36.376Z,58.80
2018-06-23T18:44:27.999Z,59.40
2018-06-23T18:49:19.627Z,59.40
2018-06-23T18:54:17.549Z,59.20
2018-06-23T18:59:08.437Z,59.30
2018-06-23T19:04:00.055Z,59.70
2018-06-23T19:08:51.757Z,59.70
2018-06-23T19:13:43.341Z,59.90
2018-06-23T19:18:34.971Z,60.00
2018-06-23T19:23:25.843Z,60.00
2018-06-23T19:28:16.733Z,60.10
2018-06-23T19:33:07.625Z,60.00
2018-06-23T19:37:59.257Z,60.40
2018-06-23T19:42:50.153Z,60.30
2018-06-23T19:47:41.032Z,61.00
2018-06-23T19:52:31.919Z,60.50
2018-06-23T19:57:23.539Z,60.60
2018-06-23T20:02:14.424Z,60.50
2018-06-23T20:07:05.308Z,61.00
2018-06-23T20:11:56.209Z,60.80
2018-06-23T20:16:47.831Z,61.00
2018-06-23T20:21:38.719Z,60.90
2018-06-23T20:26:29.607Z,60.90
2018-06-23T20:31:20.498Z,60.70
2018-06-23T20:36:12.122Z,60.90
2018-06-23T20:41:03.006Z,60.90
2018-06-23T20:45:53.896Z,60.80
2018-06-23T20:50:44.813Z,61.10
2018-06-23T20:55:35.709Z,61.20
2018-06-23T21:00:27.335Z,61.30
2018-06-23T21:05:18.967Z,61.50
2018-06-23T21:10:09.860Z,61.50
2018-06-23T21:15:00.756Z,61.30
2018-06-23T21:19:51.638Z,61.50
2018-06-23T21:24:43.280Z,61.70
2018-06-23T21:29:34.180Z,61.70
2018-06-23T21:34:25.808Z,61.60
2018-06-23T21:39:16.696Z,61.60
2018-06-23T21:44:07.593Z,61.60
2018-06-23T21:48:58.487Z,61.80
2018-06-23T21:53:49.370Z,61.80
2018-06-23T21:58:40.272Z,62.00
2018-06-23T22:03:31.164Z,62.50
2018-06-23T22:08:22.066Z,62.40
2018-06-23T22:13:12.960Z,62.40
2018-06-23T22:18:04.583Z,62.70
2018-06-23T22:22:55.556Z,62.60
2018-06-23T22:27:46.434Z,62.30
2018-06-23T22:32:38.068Z,63.10
2018-06-23T22:37:29.696Z,63.60
2018-06-23T22:42:21.328Z,63.30
2018-06-23T22:47:12.212Z,63.40
2018-06-23T22:52:03.096Z,64.00
2018-06-23T22:56:53.988Z,63.80
2018-06-23T23:01:45.627Z,63.60
2018-06-23T23:06:37.268Z,63.50
2018-06-23T23:11:28.907Z,63.70
2018-06-23T23:16:19.796Z,63.70
2018-06-23T23:21:12.167Z,63.70
2018-06-23T23:26:03.793Z,63.70
2018-06-23T23:30:55.433Z,63.70
2018-06-23T23:35:47.063Z,63.60
2018-06-23T23:40:37.939Z,63.60
2018-06-23T23:45:28.840Z,63.50
2018-06-23T23:50:19.735Z,63.80
2018-06-23T23:55:11.376Z,64.00
